This demonstration page uses our WeatherBlox Daily Observations layout. Learn more.

36.17497, -115.13722

Hourly Observations for February 28, 2015

Temp ( °F °C ) Dew Point ( °F °C ) Humidity (%) Winds ( mph kmh ) Pressure ( in mb ) Visibility ( mi km ) Precip ( " mm )
12:53 am 00:53 Clear 54 12.2 30 -1.1 40 40 WNW 9 15 29.55 1001 10 16.0934 0 0
1:53 am 01:53 Clear 53 11.7 32 0 45 45 NNW 13 20 29.58 1002 10 16.0934 0 0
2:53 am 02:53 Cloudy 53 11.7 33 0.6 47 47 NNE 5 7 29.6 1002 10 16.0934 0 0
3:53 am 03:53 Cloudy 52 11.1 34 1.1 50 50 NNE 3 6 29.61 1003 10 16.0934 0 0
4:53 am 04:53 Cloudy 52 11.1 35 1.7 53 53 N 7 11 29.63 1003 10 16.0934 0 0
5:53 am 05:53 Cloudy 50 10 35 1.7 57 57 Calm 29.65 1004 10 16.0934 0 0
6:53 am 06:53 Cloudy 50 10 36 2.2 59 59 Calm 29.66 1004 10 16.0934 0 0
7:53 am 07:53 Sunny 52 11.1 35 1.7 53 53 Calm 29.68 1005 10 16.0934 0 0
8:53 am 08:53 Sunny 55 12.8 32 0 42 42 SSW 6 9 29.69 1006 10 16.0934 0 0
9:53 am 09:53 Sunny 58 14.4 25 -3.9 28 28 WSW 12 19 29.69 1006 10 16.0934 0 0
10:53 am 10:53 Sunny 60 15.6 23 -5 24 24 SSW 16 26 29.69 1006 10 16.0934 0 0
11:53 am 11:53 Mostly Sunny 62 16.7 21 -6.1 21 21 WSW 21 33 29.67 1005 10 16.0934 0 0
12:53 pm 12:53 Mostly Sunny 62 16.7 20 -6.7 20 20 SW 18 30 29.7 1006 10 16.0934 0 0
1:53 pm 13:53 Mostly Sunny 62 16.7 19 -7.2 19 19 WSW 16 26 29.69 1005 10 16.0934 0 0
2:53 pm 14:53 Sunny 61 16.1 21 -6.1 21 21 SW 21 33 29.7 1006 10 16.0934 0 0
3:53 pm 15:53 Sunny 61 16.1 20 -6.7 20 20 SW 21 33 29.71 1006 10 16.0934 0 0
4:53 pm 16:53 Sunny 60 15.6 20 -6.7 21 21 SW 12 19 29.73 1007 10 16.0934 0 0
5:53 pm 17:53 Clear 59 15 21 -6.1 23 23 SSW 9 15 29.76 1008 10 16.0934 0 0
6:53 pm 18:53 Mostly Clear 58 14.4 22 -5.6 25 25 WSW 9 15 29.8 1009 10 16.0934 0 0
7:53 pm 19:53 Mostly Clear 57 13.9 23 -5 27 27 S 3 6 29.82 1010 10 16.0934 0 0
8:53 pm 20:53 Clear 55 12.8 24 -4.4 30 30 NNW 3 6 29.85 1011 10 16.0934 0 0
9:53 pm 21:53 Clear 52 11.1 32 0 47 47 N 5 7 29.87 1012 10 16.0934 0 0
10:53 pm 22:53 Partly Cloudy 49 9.4 33 0.6 55 55 undefined N/A 29.9 1012 10 16.0934 0 0
11:53 pm 23:53 Mostly Clear 50 10 33 0.6 52 52 N 3 6 29.91 1013 10 16.0934 0 0

Powered by AerisWeather